sensor_id;sensor_type;location;lat;lon;timestamp;P1;durP1;ratioP1;P2;durP2;ratioP2
20367;SDS011;10343;52.402;9.796;2023-05-07T00:00:02;7.40;;;0.35;;
20367;SDS011;10343;52.402;9.796;2023-05-07T00:02:34;5.18;;;0.25;;
20367;SDS011;10343;52.402;9.796;2023-05-07T00:05:03;7.63;;;0.90;;
20367;SDS011;10343;52.402;9.796;2023-05-07T00:07:33;4.40;;;0.10;;
20367;SDS011;10343;52.402;9.796;2023-05-07T00:10:00;6.55;;;0.70;;
20367;SDS011;10343;52.402;9.796;2023-05-07T00:12:28;4.38;;;0.30;;
20367;SDS011;10343;52.402;9.796;2023-05-07T00:14:59;3.75;;;0.75;;
20367;SDS011;10343;52.402;9.796;2023-05-07T00:17:26;5.38;;;0.40;;
20367;SDS011;10343;52.402;9.796;2023-05-07T00:19:54;4.00;;;0.30;;
20367;SDS011;10343;52.402;9.796;2023-05-07T00:22:22;4.75;;;0.43;;
20367;SDS011;10343;52.402;9.796;2023-05-07T00:24:50;8.35;;;0.93;;
20367;SDS011;10343;52.402;9.796;2023-05-07T00:27:17;7.53;;;0.63;;
20367;SDS011;10343;52.402;9.796;2023-05-07T00:29:45;3.15;;;0.32;;
20367;SDS011;10343;52.402;9.796;2023-05-07T00:32:14;8.25;;;0.95;;
20367;SDS011;10343;52.402;9.796;2023-05-07T00:34:42;4.43;;;0.20;;
20367;SDS011;10343;52.402;9.796;2023-05-07T00:37:10;6.30;;;0.60;;
20367;SDS011;10343;52.402;9.796;2023-05-07T00:39:38;5.72;;;0.70;;
20367;SDS011;10343;52.402;9.796;2023-05-07T00:42:06;4.55;;;0.50;;
20367;SDS011;10343;52.402;9.796;2023-05-07T00:44:34;7.07;;;0.65;;
20367;SDS011;10343;52.402;9.796;2023-05-07T00:47:02;4.88;;;0.30;;
20367;SDS011;10343;52.402;9.796;2023-05-07T00:49:35;6.70;;;0.85;;
20367;SDS011;10343;52.402;9.796;2023-05-07T00:52:06;9.15;;;1.52;;
20367;SDS011;10343;52.402;9.796;2023-05-07T00:54:34;6.85;;;0.32;;
20367;SDS011;10343;52.402;9.796;2023-05-07T00:57:03;9.45;;;0.90;;
20367;SDS011;10343;52.402;9.796;2023-05-07T00:59:31;7.22;;;0.93;;
20367;SDS011;10343;52.402;9.796;2023-05-07T01:01:59;7.80;;;1.08;;
20367;SDS011;10343;52.402;9.796;2023-05-07T01:04:27;10.23;;;1.65;;
20367;SDS011;10343;52.402;9.796;2023-05-07T01:06:56;9.48;;;1.33;;
20367;SDS011;10343;52.402;9.796;2023-05-07T01:09:27;5.30;;;0.47;;
20367;SDS011;10343;52.402;9.796;2023-05-07T01:11:56;7.30;;;1.13;;
20367;SDS011;10343;52.402;9.796;2023-05-07T01:14:24;9.82;;;1.98;;
20367;SDS011;10343;52.402;9.796;2023-05-07T01:16:52;10.60;;;1.35;;
20367;SDS011;10343;52.402;9.796;2023-05-07T01:19:23;8.55;;;1.05;;
20367;SDS011;10343;52.402;9.796;2023-05-07T01:21:51;11.70;;;1.35;;
20367;SDS011;10343;52.402;9.796;2023-05-07T01:24:25;11.00;;;1.15;;
20367;SDS011;10343;52.402;9.796;2023-05-07T01:26:53;8.20;;;1.73;;
20367;SDS011;10343;52.402;9.796;2023-05-07T01:29:21;12.25;;;1.73;;
20367;SDS011;10343;52.402;9.796;2023-05-07T01:31:49;6.78;;;1.13;;
20367;SDS011;10343;52.402;9.796;2023-05-07T01:34:19;7.03;;;0.55;;
20367;SDS011;10343;52.402;9.796;2023-05-07T01:36:49;5.60;;;0.88;;
20367;SDS011;10343;52.402;9.796;2023-05-07T01:39:17;10.43;;;1.95;;
20367;SDS011;10343;52.402;9.796;2023-05-07T01:41:46;6.50;;;0.95;;
20367;SDS011;10343;52.402;9.796;2023-05-07T01:44:14;12.75;;;1.75;;
20367;SDS011;10343;52.402;9.796;2023-05-07T01:46:44;9.13;;;1.90;;
20367;SDS011;10343;52.402;9.796;2023-05-07T01:49:12;7.68;;;0.30;;
20367;SDS011;10343;52.402;9.796;2023-05-07T01:51:40;10.82;;;0.68;;
20367;SDS011;10343;52.402;9.796;2023-05-07T01:54:08;4.85;;;0.50;;
20367;SDS011;10343;52.402;9.796;2023-05-07T01:56:37;3.55;;;0.40;;
20367;SDS011;10343;52.402;9.796;2023-05-07T01:59:06;5.40;;;0.82;;
20367;SDS011;10343;52.402;9.796;2023-05-07T02:01:34;7.90;;;0.52;;
20367;SDS011;10343;52.402;9.796;2023-05-07T02:04:02;6.15;;;0.40;;
20367;SDS011;10343;52.402;9.796;2023-05-07T02:06:29;8.43;;;0.88;;
20367;SDS011;10343;52.402;9.796;2023-05-07T02:09:02;9.27;;;1.25;;
20367;SDS011;10343;52.402;9.796;2023-05-07T02:11:30;8.10;;;0.85;;
20367;SDS011;10343;52.402;9.796;2023-05-07T02:13:58;3.28;;;0.20;;
20367;SDS011;10343;52.402;9.796;2023-05-07T02:16:27;9.35;;;0.52;;
20367;SDS011;10343;52.402;9.796;2023-05-07T02:18:56;7.28;;;0.98;;
20367;SDS011;10343;52.402;9.796;2023-05-07T02:21:24;10.30;;;1.05;;
20367;SDS011;10343;52.402;9.796;2023-05-07T02:23:55;6.97;;;0.30;;
20367;SDS011;10343;52.402;9.796;2023-05-07T02:26:23;10.55;;;1.10;;
20367;SDS011;10343;52.402;9.796;2023-05-07T02:28:52;3.75;;;0.43;;
20367;SDS011;10343;52.402;9.796;2023-05-07T02:31:20;2.78;;;0.20;;
20367;SDS011;10343;52.402;9.796;2023-05-07T02:33:49;3.72;;;0.20;;
20367;SDS011;10343;52.402;9.796;2023-05-07T02:36:17;4.47;;;0.17;;
20367;SDS011;10343;52.402;9.796;2023-05-07T02:38:51;4.72;;;0.20;;
20367;SDS011;10343;52.402;9.796;2023-05-07T02:41:19;2.92;;;0.10;;
20367;SDS011;10343;52.402;9.796;2023-05-07T02:43:47;2.78;;;0.10;;
20367;SDS011;10343;52.402;9.796;2023-05-07T02:46:16;5.03;;;0.15;;
20367;SDS011;10343;52.402;9.796;2023-05-07T02:48:50;1.98;;;0.10;;
20367;SDS011;10343;52.402;9.796;2023-05-07T02:51:19;2.10;;;0.10;;
20367;SDS011;10343;52.402;9.796;2023-05-07T02:53:52;2.20;;;0.10;;
20367;SDS011;10343;52.402;9.796;2023-05-07T02:56:20;1.55;;;0.10;;
20367;SDS011;10343;52.402;9.796;2023-05-07T02:58:48;7.13;;;0.30;;
20367;SDS011;10343;52.402;9.796;2023-05-07T03:01:18;2.85;;;0.10;;
20367;SDS011;10343;52.402;9.796;2023-05-07T03:04:00;1.75;;;0.10;;
20367;SDS011;10343;52.402;9.796;2023-05-07T03:06:28;4.88;;;0.10;;
20367;SDS011;10343;52.402;9.796;2023-05-07T03:08:56;5.70;;;0.10;;
20367;SDS011;10343;52.402;9.796;2023-05-07T03:11:24;3.65;;;0.10;;
20367;SDS011;10343;52.402;9.796;2023-05-07T03:13:52;2.35;;;0.20;;
20367;SDS011;10343;52.402;9.796;2023-05-07T03:16:21;2.45;;;0.10;;
20367;SDS011;10343;52.402;9.796;2023-05-07T03:18:49;3.60;;;0.20;;
20367;SDS011;10343;52.402;9.796;2023-05-07T03:21:18;3.78;;;0.05;;
20367;SDS011;10343;52.402;9.796;2023-05-07T03:23:46;5.47;;;0.63;;
20367;SDS011;10343;52.402;9.796;2023-05-07T03:26:14;3.17;;;0.10;;
20367;SDS011;10343;52.402;9.796;2023-05-07T03:28:44;1.77;;;0.10;;
20367;SDS011;10343;52.402;9.796;2023-05-07T03:31:15;2.47;;;0.08;;
20367;SDS011;10343;52.402;9.796;2023-05-07T03:33:50;7.05;;;0.40;;
20367;SDS011;10343;52.402;9.796;2023-05-07T03:36:20;1.50;;;0.10;;
20367;SDS011;10343;52.402;9.796;2023-05-07T03:38:48;2.88;;;0.10;;
20367;SDS011;10343;52.402;9.796;2023-05-07T03:41:19;4.43;;;0.10;;
20367;SDS011;10343;52.402;9.796;2023-05-07T03:43:47;3.20;;;0.10;;
20367;SDS011;10343;52.402;9.796;2023-05-07T03:46:16;4.05;;;0.15;;
20367;SDS011;10343;52.402;9.796;2023-05-07T03:48:44;2.00;;;0.10;;
20367;SDS011;10343;52.402;9.796;2023-05-07T03:51:13;2.17;;;0.10;;
20367;SDS011;10343;52.402;9.796;2023-05-07T03:53:42;1.15;;;0.00;;
20367;SDS011;10343;52.402;9.796;2023-05-07T03:56:10;2.83;;;0.10;;
20367;SDS011;10343;52.402;9.796;2023-05-07T03:58:40;2.35;;;0.10;;
20367;SDS011;10343;52.402;9.796;2023-05-07T04:01:09;0.98;;;0.10;;
20367;SDS011;10343;52.402;9.796;2023-05-07T04:03:37;2.38;;;0.20;;
20367;SDS011;10343;52.402;9.796;2023-05-07T04:06:06;1.27;;;0.00;;
20367;SDS011;10343;52.402;9.796;2023-05-07T04:08:35;2.78;;;0.10;;
20367;SDS011;10343;52.402;9.796;2023-05-07T04:11:06;0.98;;;0.10;;
20367;SDS011;10343;52.402;9.796;2023-05-07T04:13:35;1.75;;;0.00;;
20367;SDS011;10343;52.402;9.796;2023-05-07T04:16:05;2.35;;;0.10;;
20367;SDS011;10343;52.402;9.796;2023-05-07T04:18:35;4.97;;;0.10;;
20367;SDS011;10343;52.402;9.796;2023-05-07T04:21:04;1.23;;;0.00;;
20367;SDS011;10343;52.402;9.796;2023-05-07T04:23:34;1.20;;;0.10;;
20367;SDS011;10343;52.402;9.796;2023-05-07T04:26:08;1.65;;;0.10;;
20367;SDS011;10343;52.402;9.796;2023-05-07T04:28:39;3.13;;;0.10;;
20367;SDS011;10343;52.402;9.796;2023-05-07T04:31:08;3.35;;;0.10;;
20367;SDS011;10343;52.402;9.796;2023-05-07T04:33:37;3.20;;;0.00;;
20367;SDS011;10343;52.402;9.796;2023-05-07T04:36:07;3.60;;;0.30;;
20367;SDS011;10343;52.402;9.796;2023-05-07T04:38:42;11.40;;;0.10;;
20367;SDS011;10343;52.402;9.796;2023-05-07T04:41:12;2.58;;;0.10;;
20367;SDS011;10343;52.402;9.796;2023-05-07T04:43:40;3.72;;;0.10;;
20367;SDS011;10343;52.402;9.796;2023-05-07T04:46:10;6.15;;;0.22;;
20367;SDS011;10343;52.402;9.796;2023-05-07T04:48:40;5.70;;;0.10;;
20367;SDS011;10343;52.402;9.796;2023-05-07T04:51:07;3.03;;;0.13;;
20367;SDS011;10343;52.402;9.796;2023-05-07T04:53:36;4.07;;;0.00;;
20367;SDS011;10343;52.402;9.796;2023-05-07T04:56:04;3.92;;;0.10;;
20367;SDS011;10343;52.402;9.796;2023-05-07T04:58:40;5.95;;;0.10;;
20367;SDS011;10343;52.402;9.796;2023-05-07T05:01:08;2.72;;;0.10;;
20367;SDS011;10343;52.402;9.796;2023-05-07T05:03:37;3.53;;;0.10;;
20367;SDS011;10343;52.402;9.796;2023-05-07T05:06:07;2.55;;;0.10;;
20367;SDS011;10343;52.402;9.796;2023-05-07T05:08:35;3.40;;;0.03;;
20367;SDS011;10343;52.402;9.796;2023-05-07T05:11:03;1.38;;;0.10;;
20367;SDS011;10343;52.402;9.796;2023-05-07T05:13:33;4.80;;;0.30;;
20367;SDS011;10343;52.402;9.796;2023-05-07T05:16:10;2.28;;;0.10;;
20367;SDS011;10343;52.402;9.796;2023-05-07T05:18:39;3.67;;;0.10;;
20367;SDS011;10343;52.402;9.796;2023-05-07T05:21:08;1.55;;;0.00;;
20367;SDS011;10343;52.402;9.796;2023-05-07T05:23:37;3.92;;;0.10;;
20367;SDS011;10343;52.402;9.796;2023-05-07T05:26:05;3.40;;;0.00;;
20367;SDS011;10343;52.402;9.796;2023-05-07T05:28:33;1.85;;;0.10;;
20367;SDS011;10343;52.402;9.796;2023-05-07T05:31:02;2.78;;;0.10;;
20367;SDS011;10343;52.402;9.796;2023-05-07T05:33:35;2.65;;;0.10;;
20367;SDS011;10343;52.402;9.796;2023-05-07T05:36:04;1.40;;;0.20;;
20367;SDS011;10343;52.402;9.796;2023-05-07T05:38:34;3.20;;;0.10;;
20367;SDS011;10343;52.402;9.796;2023-05-07T05:41:02;4.53;;;0.10;;
20367;SDS011;10343;52.402;9.796;2023-05-07T05:43:30;2.40;;;0.10;;
20367;SDS011;10343;52.402;9.796;2023-05-07T05:45:58;4.70;;;0.10;;
20367;SDS011;10343;52.402;9.796;2023-05-07T05:48:28;1.75;;;0.10;;
20367;SDS011;10343;52.402;9.796;2023-05-07T05:50:59;3.67;;;0.10;;
20367;SDS011;10343;52.402;9.796;2023-05-07T05:53:27;2.15;;;0.05;;
20367;SDS011;10343;52.402;9.796;2023-05-07T05:55:55;2.70;;;0.00;;
20367;SDS011;10343;52.402;9.796;2023-05-07T05:58:23;1.38;;;0.10;;
20367;SDS011;10343;52.402;9.796;2023-05-07T06:00:56;3.22;;;0.10;;
20367;SDS011;10343;52.402;9.796;2023-05-07T06:03:26;2.30;;;0.10;;
20367;SDS011;10343;52.402;9.796;2023-05-07T06:05:56;4.35;;;0.13;;
20367;SDS011;10343;52.402;9.796;2023-05-07T06:08:28;2.50;;;0.10;;
20367;SDS011;10343;52.402;9.796;2023-05-07T06:10:58;1.88;;;0.10;;
20367;SDS011;10343;52.402;9.796;2023-05-07T06:13:27;1.88;;;0.10;;
20367;SDS011;10343;52.402;9.796;2023-05-07T06:15:55;0.85;;;0.05;;
20367;SDS011;10343;52.402;9.796;2023-05-07T06:18:23;1.35;;;0.10;;
20367;SDS011;10343;52.402;9.796;2023-05-07T06:20:51;0.25;;;0.00;;
20367;SDS011;10343;52.402;9.796;2023-05-07T06:23:23;1.85;;;0.00;;
20367;SDS011;10343;52.402;9.796;2023-05-07T06:25:53;1.73;;;0.10;;
20367;SDS011;10343;52.402;9.796;2023-05-07T06:28:26;0.95;;;0.00;;
20367;SDS011;10343;52.402;9.796;2023-05-07T06:30:54;3.13;;;0.00;;
20367;SDS011;10343;52.402;9.796;2023-05-07T06:33:22;2.28;;;0.00;;
20367;SDS011;10343;52.402;9.796;2023-05-07T06:35:50;1.27;;;0.00;;
20367;SDS011;10343;52.402;9.796;2023-05-07T06:38:19;1.30;;;0.00;;
20367;SDS011;10343;52.402;9.796;2023-05-07T06:40:50;0.90;;;0.00;;
20367;SDS011;10343;52.402;9.796;2023-05-07T06:43:17;1.58;;;0.10;;
20367;SDS011;10343;52.402;9.796;2023-05-07T06:45:52;1.60;;;0.00;;
20367;SDS011;10343;52.402;9.796;2023-05-07T06:48:20;1.90;;;0.00;;
20367;SDS011;10343;52.402;9.796;2023-05-07T06:50:55;1.23;;;0.00;;
20367;SDS011;10343;52.402;9.796;2023-05-07T06:53:24;0.90;;;0.00;;
20367;SDS011;10343;52.402;9.796;2023-05-07T06:55:56;1.55;;;0.10;;
20367;SDS011;10343;52.402;9.796;2023-05-07T06:58:24;3.03;;;0.10;;
20367;SDS011;10343;52.402;9.796;2023-05-07T07:00:52;3.88;;;0.00;;
20367;SDS011;10343;52.402;9.796;2023-05-07T07:03:20;2.35;;;0.10;;
20367;SDS011;10343;52.402;9.796;2023-05-07T07:05:51;1.65;;;0.10;;
20367;SDS011;10343;52.402;9.796;2023-05-07T07:08:19;2.42;;;0.30;;
20367;SDS011;10343;52.402;9.796;2023-05-07T07:10:49;2.53;;;0.00;;
20367;SDS011;10343;52.402;9.796;2023-05-07T07:13:18;1.52;;;0.10;;
20367;SDS011;10343;52.402;9.796;2023-05-07T07:15:46;1.75;;;0.10;;
20367;SDS011;10343;52.402;9.796;2023-05-07T07:18:14;2.05;;;0.10;;
20367;SDS011;10343;52.402;9.796;2023-05-07T07:20:42;2.10;;;0.10;;
20367;SDS011;10343;52.402;9.796;2023-05-07T07:23:12;1.73;;;0.13;;
20367;SDS011;10343;52.402;9.796;2023-05-07T07:25:40;2.08;;;0.10;;
20367;SDS011;10343;52.402;9.796;2023-05-07T07:28:09;1.48;;;0.10;;
20367;SDS011;10343;52.402;9.796;2023-05-07T07:30:39;3.10;;;0.20;;
20367;SDS011;10343;52.402;9.796;2023-05-07T07:33:09;0.95;;;0.00;;
20367;SDS011;10343;52.402;9.796;2023-05-07T07:35:37;4.28;;;0.22;;
20367;SDS011;10343;52.402;9.796;2023-05-07T07:38:06;2.58;;;0.10;;
20367;SDS011;10343;52.402;9.796;2023-05-07T07:40:34;1.65;;;0.20;;
20367;SDS011;10343;52.402;9.796;2023-05-07T07:43:04;2.30;;;0.10;;
20367;SDS011;10343;52.402;9.796;2023-05-07T07:45:32;2.30;;;0.10;;
20367;SDS011;10343;52.402;9.796;2023-05-07T07:48:02;1.70;;;0.10;;
20367;SDS011;10343;52.402;9.796;2023-05-07T07:50:34;2.33;;;0.00;;
20367;SDS011;10343;52.402;9.796;2023-05-07T07:53:13;1.40;;;0.10;;
20367;SDS011;10343;52.402;9.796;2023-05-07T07:55:41;1.83;;;0.10;;
20367;SDS011;10343;52.402;9.796;2023-05-07T07:58:12;1.67;;;0.10;;
20367;SDS011;10343;52.402;9.796;2023-05-07T08:00:40;2.63;;;0.10;;
20367;SDS011;10343;52.402;9.796;2023-05-07T08:03:10;1.70;;;0.10;;
20367;SDS011;10343;52.402;9.796;2023-05-07T08:05:43;2.50;;;0.10;;
20367;SDS011;10343;52.402;9.796;2023-05-07T08:08:11;2.15;;;0.10;;
20367;SDS011;10343;52.402;9.796;2023-05-07T08:10:42;1.60;;;0.00;;
20367;SDS011;10343;52.402;9.796;2023-05-07T08:13:18;0.63;;;0.00;;
20367;SDS011;10343;52.402;9.796;2023-05-07T08:15:46;1.58;;;0.00;;
20367;SDS011;10343;52.402;9.796;2023-05-07T08:18:16;1.35;;;0.00;;
20367;SDS011;10343;52.402;9.796;2023-05-07T08:20:44;1.60;;;0.03;;
20367;SDS011;10343;52.402;9.796;2023-05-07T08:23:17;1.45;;;0.10;;
20367;SDS011;10343;52.402;9.796;2023-05-07T08:25:45;2.95;;;0.10;;
20367;SDS011;10343;52.402;9.796;2023-05-07T08:28:14;2.47;;;0.17;;
20367;SDS011;10343;52.402;9.796;2023-05-07T08:30:42;1.15;;;0.00;;
20367;SDS011;10343;52.402;9.796;2023-05-07T08:33:10;1.20;;;0.00;;
20367;SDS011;10343;52.402;9.796;2023-05-07T08:35:39;3.55;;;0.10;;
20367;SDS011;10343;52.402;9.796;2023-05-07T08:38:09;1.30;;;0.10;;
20367;SDS011;10343;52.402;9.796;2023-05-07T08:40:38;1.17;;;0.00;;
20367;SDS011;10343;52.402;9.796;2023-05-07T08:43:12;2.45;;;0.10;;
20367;SDS011;10343;52.402;9.796;2023-05-07T08:45:42;0.38;;;0.00;;
20367;SDS011;10343;52.402;9.796;2023-05-07T08:48:15;0.90;;;0.00;;
20367;SDS011;10343;52.402;9.796;2023-05-07T08:50:54;2.63;;;0.10;;
20367;SDS011;10343;52.402;9.796;2023-05-07T08:53:22;4.63;;;0.10;;
20367;SDS011;10343;52.402;9.796;2023-05-07T08:55:50;1.70;;;0.10;;
20367;SDS011;10343;52.402;9.796;2023-05-07T08:58:19;4.07;;;0.10;;
20367;SDS011;10343;52.402;9.796;2023-05-07T09:00:48;1.48;;;0.00;;
20367;SDS011;10343;52.402;9.796;2023-05-07T09:03:18;1.05;;;0.00;;
20367;SDS011;10343;52.402;9.796;2023-05-07T09:05:50;1.05;;;0.00;;
20367;SDS011;10343;52.402;9.796;2023-05-07T09:08:23;3.85;;;0.00;;
20367;SDS011;10343;52.402;9.796;2023-05-07T09:10:54;3.42;;;0.17;;
20367;SDS011;10343;52.402;9.796;2023-05-07T09:13:23;1.27;;;0.00;;
20367;SDS011;10343;52.402;9.796;2023-05-07T09:15:51;2.58;;;0.10;;
20367;SDS011;10343;52.402;9.796;2023-05-07T09:18:20;1.75;;;0.00;;
20367;SDS011;10343;52.402;9.796;2023-05-07T09:20:48;5.82;;;0.10;;
20367;SDS011;10343;52.402;9.796;2023-05-07T09:23:20;1.55;;;0.10;;
20367;SDS011;10343;52.402;9.796;2023-05-07T09:25:48;2.03;;;0.10;;
20367;SDS011;10343;52.402;9.796;2023-05-07T09:28:24;2.78;;;0.10;;
20367;SDS011;10343;52.402;9.796;2023-05-07T09:30:52;1.27;;;0.00;;
20367;SDS011;10343;52.402;9.796;2023-05-07T09:33:20;0.75;;;0.00;;
20367;SDS011;10343;52.402;9.796;2023-05-07T09:35:51;1.15;;;0.10;;
20367;SDS011;10343;52.402;9.796;2023-05-07T09:38:22;1.98;;;0.10;;
20367;SDS011;10343;52.402;9.796;2023-05-07T09:41:01;2.60;;;0.00;;
20367;SDS011;10343;52.402;9.796;2023-05-07T09:43:32;3.67;;;0.10;;
20367;SDS011;10343;52.402;9.796;2023-05-07T09:46:05;0.88;;;0.00;;
20367;SDS011;10343;52.402;9.796;2023-05-07T09:48:36;1.20;;;0.10;;
20367;SDS011;10343;52.402;9.796;2023-05-07T09:51:10;2.08;;;0.10;;
20367;SDS011;10343;52.402;9.796;2023-05-07T09:53:46;1.85;;;0.10;;
20367;SDS011;10343;52.402;9.796;2023-05-07T09:56:14;7.57;;;0.10;;
20367;SDS011;10343;52.402;9.796;2023-05-07T09:58:44;2.50;;;0.00;;
20367;SDS011;10343;52.402;9.796;2023-05-07T10:01:13;2.13;;;0.10;;
20367;SDS011;10343;52.402;9.796;2023-05-07T10:03:42;0.82;;;0.00;;
20367;SDS011;10343;52.402;9.796;2023-05-07T10:06:13;4.93;;;0.43;;
20367;SDS011;10343;52.402;9.796;2023-05-07T10:08:42;1.75;;;0.10;;
20367;SDS011;10343;52.402;9.796;2023-05-07T10:11:13;2.10;;;0.00;;
20367;SDS011;10343;52.402;9.796;2023-05-07T10:13:43;4.05;;;0.10;;
20367;SDS011;10343;52.402;9.796;2023-05-07T10:16:14;0.45;;;0.03;;
20367;SDS011;10343;52.402;9.796;2023-05-07T10:18:46;6.05;;;0.10;;
20367;SDS011;10343;52.402;9.796;2023-05-07T10:21:19;1.48;;;0.10;;
20367;SDS011;10343;52.402;9.796;2023-05-07T10:23:50;1.23;;;0.00;;
20367;SDS011;10343;52.402;9.796;2023-05-07T10:26:22;1.90;;;0.10;;
20367;SDS011;10343;52.402;9.796;2023-05-07T10:29:03;2.40;;;0.10;;
20367;SDS011;10343;52.402;9.796;2023-05-07T10:31:38;2.05;;;0.10;;
20367;SDS011;10343;52.402;9.796;2023-05-07T10:34:19;2.35;;;0.10;;
20367;SDS011;10343;52.402;9.796;2023-05-07T10:36:50;3.58;;;0.10;;
20367;SDS011;10343;52.402;9.796;2023-05-07T10:39:21;1.25;;;0.00;;
20367;SDS011;10343;52.402;9.796;2023-05-07T10:41:51;4.80;;;0.10;;
20367;SDS011;10343;52.402;9.796;2023-05-07T10:44:25;4.28;;;0.10;;
20367;SDS011;10343;52.402;9.796;2023-05-07T10:47:07;2.28;;;0.00;;
20367;SDS011;10343;52.402;9.796;2023-05-07T10:49:51;1.00;;;0.03;;
20367;SDS011;10343;52.402;9.796;2023-05-07T11:02:22;1.75;;;0.05;;
20367;SDS011;10343;52.402;9.796;2023-05-07T11:07:53;2.55;;;0.10;;
20367;SDS011;10343;52.402;9.796;2023-05-07T11:13:43;1.10;;;0.00;;
20367;SDS011;10343;52.402;9.796;2023-05-07T11:16:32;1.73;;;0.00;;
20367;SDS011;10343;52.402;9.796;2023-05-07T11:22:35;1.42;;;0.10;;
20367;SDS011;10343;52.402;9.796;2023-05-07T11:25:30;0.57;;;0.00;;
20367;SDS011;10343;52.402;9.796;2023-05-07T11:28:09;1.33;;;0.00;;
20367;SDS011;10343;52.402;9.796;2023-05-07T11:30:43;2.95;;;0.03;;
20367;SDS011;10343;52.402;9.796;2023-05-07T11:33:16;2.20;;;0.10;;
20367;SDS011;10343;52.402;9.796;2023-05-07T11:35:49;2.22;;;0.00;;
20367;SDS011;10343;52.402;9.796;2023-05-07T11:38:21;1.05;;;0.00;;
20367;SDS011;10343;52.402;9.796;2023-05-07T11:40:49;1.58;;;0.10;;
20367;SDS011;10343;52.402;9.796;2023-05-07T11:43:18;1.17;;;0.00;;
20367;SDS011;10343;52.402;9.796;2023-05-07T11:45:46;1.65;;;0.10;;
20367;SDS011;10343;52.402;9.796;2023-05-07T11:48:15;0.90;;;0.00;;
20367;SDS011;10343;52.402;9.796;2023-05-07T11:50:51;1.55;;;0.00;;
20367;SDS011;10343;52.402;9.796;2023-05-07T11:53:20;2.45;;;0.00;;
20367;SDS011;10343;52.402;9.796;2023-05-07T11:55:52;1.25;;;0.00;;
20367;SDS011;10343;52.402;9.796;2023-05-07T11:58:21;0.35;;;0.00;;
20367;SDS011;10343;52.402;9.796;2023-05-07T12:00:50;1.42;;;0.00;;
20367;SDS011;10343;52.402;9.796;2023-05-07T12:03:18;2.20;;;0.00;;
20367;SDS011;10343;52.402;9.796;2023-05-07T12:05:47;0.47;;;0.00;;
20367;SDS011;10343;52.402;9.796;2023-05-07T12:08:17;1.27;;;0.00;;
20367;SDS011;10343;52.402;9.796;2023-05-07T12:10:49;4.10;;;0.10;;
20367;SDS011;10343;52.402;9.796;2023-05-07T12:13:18;0.40;;;0.00;;
20367;SDS011;10343;52.402;9.796;2023-05-07T12:15:48;2.35;;;0.10;;
20367;SDS011;10343;52.402;9.796;2023-05-07T12:18:18;0.52;;;0.00;;
20367;SDS011;10343;52.402;9.796;2023-05-07T12:20:46;0.32;;;0.00;;
20367;SDS011;10343;52.402;9.796;2023-05-07T12:23:16;0.77;;;0.00;;
20367;SDS011;10343;52.402;9.796;2023-05-07T12:25:44;0.68;;;0.00;;
20367;SDS011;10343;52.402;9.796;2023-05-07T12:28:14;2.70;;;0.00;;
20367;SDS011;10343;52.402;9.796;2023-05-07T12:30:43;11.98;;;0.00;;
20367;SDS011;10343;52.402;9.796;2023-05-07T12:33:11;0.60;;;0.00;;
20367;SDS011;10343;52.402;9.796;2023-05-07T12:35:40;0.17;;;0.00;;
20367;SDS011;10343;52.402;9.796;2023-05-07T12:38:09;0.50;;;0.00;;
20367;SDS011;10343;52.402;9.796;2023-05-07T12:40:41;0.88;;;0.00;;
20367;SDS011;10343;52.402;9.796;2023-05-07T12:43:15;0.22;;;0.00;;
20367;SDS011;10343;52.402;9.796;2023-05-07T12:45:44;1.25;;;0.00;;
20367;SDS011;10343;52.402;9.796;2023-05-07T12:48:12;1.23;;;0.00;;
20367;SDS011;10343;52.402;9.796;2023-05-07T12:50:41;0.70;;;0.00;;
20367;SDS011;10343;52.402;9.796;2023-05-07T12:53:11;0.77;;;0.00;;
20367;SDS011;10343;52.402;9.796;2023-05-07T12:55:44;1.85;;;0.10;;
20367;SDS011;10343;52.402;9.796;2023-05-07T12:58:14;1.08;;;0.00;;
20367;SDS011;10343;52.402;9.796;2023-05-07T13:00:44;4.75;;;0.00;;
20367;SDS011;10343;52.402;9.796;2023-05-07T13:03:15;0.10;;;0.00;;
20367;SDS011;10343;52.402;9.796;2023-05-07T13:05:48;0.45;;;0.00;;
20367;SDS011;10343;52.402;9.796;2023-05-07T13:08:23;10.65;;;0.00;;
20367;SDS011;10343;52.402;9.796;2023-05-07T13:10:56;0.73;;;0.00;;
20367;SDS011;10343;52.402;9.796;2023-05-07T13:13:26;1.52;;;0.00;;
20367;SDS011;10343;52.402;9.796;2023-05-07T13:15:57;1.17;;;0.00;;
20367;SDS011;10343;52.402;9.796;2023-05-07T13:18:27;0.25;;;0.00;;
20367;SDS011;10343;52.402;9.796;2023-05-07T13:20:57;1.67;;;0.00;;
20367;SDS011;10343;52.402;9.796;2023-05-07T13:23:25;0.20;;;0.00;;
20367;SDS011;10343;52.402;9.796;2023-05-07T13:25:53;0.57;;;0.00;;
20367;SDS011;10343;52.402;9.796;2023-05-07T13:28:23;1.75;;;0.03;;
20367;SDS011;10343;52.402;9.796;2023-05-07T13:30:52;0.77;;;0.00;;
20367;SDS011;10343;52.402;9.796;2023-05-07T13:33:21;0.43;;;0.00;;
20367;SDS011;10343;52.402;9.796;2023-05-07T13:35:49;2.33;;;0.00;;
20367;SDS011;10343;52.402;9.796;2023-05-07T13:38:17;0.85;;;0.00;;
20367;SDS011;10343;52.402;9.796;2023-05-07T13:40:45;0.93;;;0.00;;
20367;SDS011;10343;52.402;9.796;2023-05-07T13:43:13;1.63;;;0.00;;
20367;SDS011;10343;52.402;9.796;2023-05-07T13:45:42;1.10;;;0.00;;
20367;SDS011;10343;52.402;9.796;2023-05-07T13:48:10;1.33;;;0.00;;
20367;SDS011;10343;52.402;9.796;2023-05-07T13:50:38;3.65;;;0.08;;
20367;SDS011;10343;52.402;9.796;2023-05-07T13:53:07;1.65;;;0.08;;
20367;SDS011;10343;52.402;9.796;2023-05-07T13:55:35;1.58;;;0.00;;
20367;SDS011;10343;52.402;9.796;2023-05-07T13:58:03;0.30;;;0.00;;
20367;SDS011;10343;52.402;9.796;2023-05-07T14:00:33;0.52;;;0.00;;
20367;SDS011;10343;52.402;9.796;2023-05-07T14:03:02;0.47;;;0.00;;
20367;SDS011;10343;52.402;9.796;2023-05-07T14:05:32;0.70;;;0.00;;
20367;SDS011;10343;52.402;9.796;2023-05-07T14:08:01;1.02;;;0.00;;
20367;SDS011;10343;52.402;9.796;2023-05-07T14:10:30;1.02;;;0.08;;
20367;SDS011;10343;52.402;9.796;2023-05-07T14:13:00;3.53;;;0.00;;
20367;SDS011;10343;52.402;9.796;2023-05-07T14:15:29;0.60;;;0.00;;
20367;SDS011;10343;52.402;9.796;2023-05-07T14:17:59;1.67;;;0.00;;
20367;SDS011;10343;52.402;9.796;2023-05-07T14:20:29;2.58;;;0.00;;
20367;SDS011;10343;52.402;9.796;2023-05-07T14:22:57;1.35;;;0.00;;
20367;SDS011;10343;52.402;9.796;2023-05-07T14:25:25;0.75;;;0.00;;
20367;SDS011;10343;52.402;9.796;2023-05-07T14:27:53;0.68;;;0.00;;
20367;SDS011;10343;52.402;9.796;2023-05-07T14:30:21;1.20;;;0.00;;
20367;SDS011;10343;52.402;9.796;2023-05-07T14:32:50;0.10;;;0.00;;
20367;SDS011;10343;52.402;9.796;2023-05-07T14:35:18;2.03;;;0.00;;
20367;SDS011;10343;52.402;9.796;2023-05-07T14:37:48;3.20;;;0.10;;
20367;SDS011;10343;52.402;9.796;2023-05-07T14:40:16;1.58;;;0.00;;
20367;SDS011;10343;52.402;9.796;2023-05-07T14:42:44;1.55;;;0.00;;
20367;SDS011;10343;52.402;9.796;2023-05-07T14:45:12;2.15;;;0.00;;
20367;SDS011;10343;52.402;9.796;2023-05-07T14:47:40;2.00;;;0.00;;
20367;SDS011;10343;52.402;9.796;2023-05-07T14:50:08;0.20;;;0.00;;
20367;SDS011;10343;52.402;9.796;2023-05-07T14:52:37;1.73;;;0.00;;
20367;SDS011;10343;52.402;9.796;2023-05-07T14:55:06;1.73;;;0.03;;
20367;SDS011;10343;52.402;9.796;2023-05-07T14:57:35;0.90;;;0.00;;
20367;SDS011;10343;52.402;9.796;2023-05-07T15:00:04;0.95;;;0.00;;
20367;SDS011;10343;52.402;9.796;2023-05-07T15:02:34;0.38;;;0.00;;
20367;SDS011;10343;52.402;9.796;2023-05-07T15:05:02;2.90;;;0.00;;
20367;SDS011;10343;52.402;9.796;2023-05-07T15:07:30;0.73;;;0.00;;
20367;SDS011;10343;52.402;9.796;2023-05-07T15:10:00;2.58;;;0.00;;
20367;SDS011;10343;52.402;9.796;2023-05-07T15:12:30;3.35;;;0.00;;
20367;SDS011;10343;52.402;9.796;2023-05-07T15:14:58;1.50;;;0.10;;
20367;SDS011;10343;52.402;9.796;2023-05-07T15:17:26;0.43;;;0.00;;
20367;SDS011;10343;52.402;9.796;2023-05-07T15:19:54;4.38;;;0.10;;
20367;SDS011;10343;52.402;9.796;2023-05-07T15:22:22;1.10;;;0.00;;